createdAt,value
2023-04-17T00:02:20.460Z,30.50
2023-04-17T00:04:47.446Z,29.25
2023-04-17T00:07:14.331Z,29.42
2023-04-17T00:09:40.844Z,29.75
2023-04-17T00:12:07.356Z,26.63
2023-04-17T00:14:33.809Z,27.83
2023-04-17T00:17:00.369Z,27.35
2023-04-17T00:19:26.907Z,28.33
2023-04-17T00:21:53.384Z,27.50
2023-04-17T00:24:19.886Z,26.23
2023-04-17T00:26:46.371Z,27.42
2023-04-17T00:29:13.128Z,25.38
2023-04-17T00:31:39.819Z,27.65
2023-04-17T00:34:06.394Z,25.88
2023-04-17T00:36:32.925Z,26.92
2023-04-17T00:38:59.473Z,28.48
2023-04-17T00:41:26.024Z,26.55
2023-04-17T00:43:52.475Z,25.85
2023-04-17T00:46:19.111Z,27.25
2023-04-17T00:48:45.628Z,27.67
2023-04-17T00:51:12.132Z,25.48
2023-04-17T00:53:39.086Z,26.65
2023-04-17T00:56:06.224Z,24.33
2023-04-17T00:58:33.405Z,26.58
2023-04-17T01:01:00.142Z,24.45
2023-04-17T01:03:30.075Z,25.40
2023-04-17T01:05:56.878Z,26.53
2023-04-17T01:08:23.377Z,26.92
2023-04-17T01:10:50.358Z,27.38
2023-04-17T01:13:16.989Z,24.90
2023-04-17T01:15:43.662Z,25.00
2023-04-17T01:18:10.296Z,26.08
2023-04-17T01:20:37.665Z,24.50
2023-04-17T01:23:04.292Z,23.23
2023-04-17T01:25:31.190Z,24.48
2023-04-17T01:27:57.746Z,22.88
2023-04-17T01:30:24.372Z,22.55
2023-04-17T01:32:51.179Z,24.17
2023-04-17T01:35:17.694Z,22.52
2023-04-17T01:37:44.239Z,25.70
2023-04-17T01:40:11.008Z,24.45
2023-04-17T01:42:37.600Z,24.73
2023-04-17T01:45:05.484Z,23.83
2023-04-17T01:47:32.058Z,26.02
2023-04-17T01:49:58.562Z,23.70
2023-04-17T01:52:25.129Z,24.92
2023-04-17T01:54:51.648Z,25.95
2023-04-17T01:57:18.178Z,25.35
2023-04-17T01:59:44.745Z,26.65
2023-04-17T02:02:11.428Z,25.67
2023-04-17T02:04:37.950Z,25.48
2023-04-17T02:07:04.455Z,24.85
2023-04-17T02:09:31.093Z,24.63
2023-04-17T02:11:57.560Z,23.10
2023-04-17T02:14:24.964Z,25.27
2023-04-17T02:16:51.446Z,24.60
2023-04-17T02:19:17.932Z,24.17
2023-04-17T02:21:44.423Z,25.90
2023-04-17T02:24:10.879Z,24.92
2023-04-17T02:26:37.484Z,24.50
2023-04-17T02:29:03.997Z,24.92
2023-04-17T02:31:30.987Z,24.80
2023-04-17T02:33:57.662Z,23.85
2023-04-17T02:36:24.223Z,24.60
2023-04-17T02:38:50.684Z,24.33
2023-04-17T02:41:17.182Z,24.17
2023-04-17T02:43:43.650Z,22.73
2023-04-17T02:46:10.587Z,25.20
2023-04-17T02:48:37.179Z,25.23
2023-04-17T02:51:03.954Z,24.27
2023-04-17T02:53:30.666Z,25.23
2023-04-17T02:55:57.958Z,21.52
2023-04-17T02:58:24.470Z,25.13
2023-04-17T03:00:51.213Z,24.13
2023-04-17T03:03:17.861Z,26.98
2023-04-17T03:05:44.504Z,25.52
2023-04-17T03:08:11.271Z,23.95
2023-04-17T03:10:37.750Z,25.08
2023-04-17T03:13:04.564Z,24.80
2023-04-17T03:15:31.083Z,26.05
2023-04-17T03:17:57.773Z,24.20
2023-04-17T03:20:24.300Z,26.17
2023-04-17T03:22:50.808Z,27.38
2023-04-17T03:25:17.354Z,27.05
2023-04-17T03:27:43.849Z,26.30
2023-04-17T03:30:10.696Z,25.23
2023-04-17T03:32:38.176Z,25.65
2023-04-17T03:35:05.248Z,26.73
2023-04-17T03:37:32.311Z,26.58
2023-04-17T03:39:58.794Z,25.20
2023-04-17T03:42:27.002Z,24.77
2023-04-17T03:44:56.127Z,29.42
2023-04-17T03:47:22.735Z,27.08
2023-04-17T03:49:49.337Z,25.10
2023-04-17T03:52:15.934Z,26.30
2023-04-17T03:54:42.573Z,27.23
2023-04-17T03:57:09.084Z,27.15
2023-04-17T03:59:35.551Z,25.38
2023-04-17T04:02:02.258Z,27.13
2023-04-17T04:04:28.947Z,26.55
2023-04-17T04:06:57.574Z,26.75
2023-04-17T04:09:25.780Z,26.33
2023-04-17T04:11:52.348Z,25.80
2023-04-17T04:14:19.077Z,25.75
2023-04-17T04:16:45.596Z,27.48
2023-04-17T04:19:12.740Z,26.13
2023-04-17T04:21:39.396Z,25.45
2023-04-17T04:24:05.986Z,26.88
2023-04-17T04:26:33.332Z,26.45
2023-04-17T04:29:00.391Z,24.23
2023-04-17T04:31:29.724Z,26.85
2023-04-17T04:33:59.440Z,26.23
2023-04-17T04:36:30.159Z,24.55
2023-04-17T04:41:26.757Z,28.63
2023-04-17T04:43:56.094Z,29.13
2023-04-17T04:46:22.714Z,27.63
2023-04-17T04:48:49.251Z,25.80
2023-04-17T04:51:16.102Z,26.00
2023-04-17T04:53:42.710Z,27.13
2023-04-17T04:56:09.399Z,28.15
2023-04-17T04:58:36.266Z,26.58
2023-04-17T05:01:05.183Z,27.15
2023-04-17T05:03:32.031Z,26.73
2023-04-17T05:05:59.109Z,25.67
2023-04-17T05:08:27.124Z,31.65
2023-04-17T05:10:53.627Z,27.50
2023-04-17T05:13:20.563Z,27.55
2023-04-17T05:15:47.159Z,26.38
2023-04-17T05:18:13.766Z,26.10
2023-04-17T05:20:40.394Z,25.90
2023-04-17T05:23:06.916Z,25.17
2023-04-17T05:25:33.423Z,26.38
2023-04-17T05:28:00.096Z,26.10
2023-04-17T05:30:26.639Z,26.98
2023-04-17T05:32:54.382Z,25.38
2023-04-17T05:35:21.026Z,25.55
2023-04-17T05:37:47.589Z,23.63
2023-04-17T05:40:14.180Z,24.35
2023-04-17T05:42:40.835Z,23.88
2023-04-17T05:45:07.954Z,24.27
2023-04-17T05:47:34.514Z,23.85
2023-04-17T05:50:01.127Z,25.73
2023-04-17T05:52:27.682Z,24.00
2023-04-17T05:54:54.134Z,24.15
2023-04-17T05:57:20.695Z,23.35
2023-04-17T05:59:47.457Z,25.17
2023-04-17T06:02:14.157Z,24.83
2023-04-17T06:04:41.624Z,24.08
2023-04-17T06:07:08.966Z,25.52
2023-04-17T06:09:36.865Z,23.17
2023-04-17T06:12:04.577Z,23.88
2023-04-17T06:14:31.584Z,25.05
2023-04-17T06:16:58.194Z,26.48
2023-04-17T06:19:27.628Z,24.42
2023-04-17T06:21:54.197Z,23.20
2023-04-17T06:24:20.764Z,24.27
2023-04-17T06:26:47.390Z,24.30
2023-04-17T06:29:15.491Z,23.80
2023-04-17T06:31:42.068Z,25.25
2023-04-17T06:34:08.655Z,23.77
2023-04-17T06:36:35.320Z,23.27
2023-04-17T06:39:01.941Z,24.30
2023-04-17T06:41:28.547Z,24.05
2023-04-17T06:43:55.041Z,23.85
2023-04-17T06:46:22.729Z,23.65
2023-04-17T06:48:52.359Z,25.17
2023-04-17T06:51:21.167Z,26.30
2023-04-17T06:53:48.362Z,24.60
2023-04-17T06:56:14.915Z,24.80
2023-04-17T06:58:44.509Z,24.05
2023-04-17T07:01:14.585Z,24.48
2023-04-17T07:03:44.056Z,26.88
2023-04-17T07:06:11.014Z,25.05
2023-04-17T07:08:37.528Z,26.23
2023-04-17T07:11:04.155Z,24.77
2023-04-17T07:13:33.269Z,25.55
2023-04-17T07:16:01.460Z,27.10
2023-04-17T07:18:29.658Z,25.00
2023-04-17T07:20:56.821Z,26.77
2023-04-17T07:23:23.994Z,27.45
2023-04-17T07:25:50.725Z,26.65
2023-04-17T07:28:18.192Z,25.63
2023-04-17T07:30:44.908Z,28.92
2023-04-17T07:33:11.678Z,25.35
2023-04-17T07:35:38.255Z,27.17
2023-04-17T07:38:05.111Z,26.60
2023-04-17T07:40:33.265Z,27.30
2023-04-17T07:42:59.898Z,29.23
2023-04-17T07:45:28.532Z,26.50
2023-04-17T07:47:55.265Z,28.00
2023-04-17T07:50:22.075Z,26.42
2023-04-17T07:52:48.657Z,28.48
2023-04-17T07:55:15.449Z,26.42
2023-04-17T07:57:43.278Z,28.38
2023-04-17T08:00:12.558Z,26.05
2023-04-17T08:02:39.361Z,26.27
2023-04-17T08:05:07.152Z,28.13
2023-04-17T08:07:33.860Z,27.25
2023-04-17T08:10:00.511Z,26.05
2023-04-17T08:12:27.089Z,26.70
2023-04-17T08:14:53.659Z,26.60
2023-04-17T08:17:23.009Z,25.45
2023-04-17T08:19:57.642Z,26.52
2023-04-17T08:22:25.584Z,25.98
2023-04-17T08:24:57.443Z,25.00
2023-04-17T08:27:25.617Z,25.33
2023-04-17T08:29:53.645Z,25.10
2023-04-17T08:32:21.404Z,26.70
2023-04-17T08:34:48.103Z,26.35
2023-04-17T08:37:14.638Z,23.90
2023-04-17T08:39:41.203Z,24.80
2023-04-17T08:42:13.333Z,23.42
2023-04-17T08:44:44.336Z,21.17
2023-04-17T08:47:12.653Z,20.83
2023-04-17T08:49:43.405Z,21.60
2023-04-17T08:52:11.033Z,20.95
2023-04-17T08:54:38.811Z,21.50
2023-04-17T08:57:06.067Z,19.45
2023-04-17T08:59:32.699Z,20.38
2023-04-17T09:02:03.671Z,16.35
2023-04-17T09:04:40.673Z,18.48
2023-04-17T09:07:09.059Z,16.48
2023-04-17T09:09:51.891Z,16.10
2023-04-17T09:12:20.286Z,16.30
2023-04-17T09:14:47.028Z,16.05
2023-04-17T09:17:18.163Z,15.48
2023-04-17T09:20:07.226Z,14.80
2023-04-17T09:22:37.933Z,14.48
2023-04-17T09:25:05.368Z,16.20
2023-04-17T09:27:32.523Z,14.88
2023-04-17T09:30:04.331Z,15.20
2023-04-17T09:32:32.130Z,14.55
2023-04-17T09:35:06.122Z,16.10
2023-04-17T09:37:56.397Z,14.02
2023-04-17T09:40:25.089Z,14.82
2023-04-17T09:42:56.257Z,14.82
2023-04-17T09:45:26.596Z,14.45
2023-04-17T09:47:56.239Z,15.95
2023-04-17T09:50:24.978Z,13.60
2023-04-17T09:52:53.061Z,14.25
2023-04-17T09:55:21.749Z,13.75
2023-04-17T09:57:54.364Z,15.10
2023-04-17T10:00:22.243Z,14.90
2023-04-17T10:02:52.103Z,14.60
2023-04-17T10:05:23.296Z,15.10
2023-04-17T10:07:50.049Z,14.80
2023-04-17T10:10:32.434Z,14.32
2023-04-17T10:13:03.836Z,14.05
2023-04-17T10:15:30.750Z,12.90
2023-04-17T10:18:24.563Z,13.02
2023-04-17T10:20:53.672Z,12.48
2023-04-17T10:23:31.989Z,12.00
2023-04-17T10:26:29.857Z,10.85
2023-04-17T10:28:59.631Z,10.20
2023-04-17T10:32:04.122Z,10.48
2023-04-17T10:34:38.966Z,10.27
2023-04-17T10:37:06.687Z,9.48
2023-04-17T10:39:59.928Z,8.77
2023-04-17T10:42:29.172Z,10.43
2023-04-17T10:45:01.593Z,11.10
2023-04-17T10:47:35.532Z,10.98
2023-04-17T10:50:04.091Z,10.18
2023-04-17T10:52:44.781Z,10.98
2023-04-17T10:55:16.494Z,10.68
2023-04-17T10:57:59.400Z,9.93
2023-04-17T11:00:33.841Z,10.93
2023-04-17T11:03:01.811Z,9.95
2023-04-17T11:05:29.082Z,10.77
2023-04-17T11:07:58.424Z,10.45
2023-04-17T11:10:25.244Z,10.55
2023-04-17T11:12:59.299Z,11.23
2023-04-17T11:15:27.785Z,10.63
2023-04-17T11:17:55.136Z,12.55
2023-04-17T11:20:23.346Z,11.52
2023-04-17T11:22:50.041Z,11.05
2023-04-17T11:25:24.933Z,11.27
2023-04-17T11:28:02.806Z,10.93
2023-04-17T11:30:34.802Z,10.95
2023-04-17T11:33:02.937Z,11.23
2023-04-17T11:35:33.952Z,10.82
2023-04-17T11:38:22.944Z,11.73
2023-04-17T11:40:54.733Z,11.77
2023-04-17T11:43:22.841Z,11.27
2023-04-17T11:45:54.191Z,12.23
2023-04-17T11:48:23.377Z,11.80
2023-04-17T11:50:50.718Z,11.43
2023-04-17T11:53:18.883Z,11.70
2023-04-17T11:55:45.859Z,12.38
2023-04-17T11:58:13.688Z,12.73
2023-04-17T12:00:41.118Z,12.32
2023-04-17T12:03:36.202Z,12.15
2023-04-17T12:06:04.940Z,11.93
2023-04-17T12:08:31.524Z,12.35
2023-04-17T12:10:58.532Z,12.13
2023-04-17T12:13:25.370Z,12.35
2023-04-17T12:15:52.043Z,12.77
2023-04-17T12:18:18.714Z,11.80
2023-04-17T12:20:45.250Z,12.20
2023-04-17T12:23:12.004Z,12.80
2023-04-17T12:25:38.552Z,11.57
2023-04-17T12:28:05.343Z,13.10
2023-04-17T12:30:33.621Z,12.35
2023-04-17T12:33:00.624Z,12.32
2023-04-17T12:35:27.713Z,11.80
2023-04-17T12:37:54.337Z,12.93
2023-04-17T12:40:24.455Z,13.88
2023-04-17T12:45:18.689Z,12.55
2023-04-17T12:47:45.620Z,13.05
2023-04-17T12:50:15.625Z,13.90
2023-04-17T12:52:42.697Z,13.02
2023-04-17T12:55:10.450Z,12.50
2023-04-17T12:57:37.360Z,13.23
2023-04-17T13:00:07.980Z,12.30
2023-04-17T13:05:02.994Z,12.52
2023-04-17T13:07:29.818Z,13.07
2023-04-17T13:09:57.032Z,13.57
2023-04-17T13:12:23.626Z,12.57
2023-04-17T13:14:50.443Z,12.70
2023-04-17T13:17:17.722Z,12.38
2023-04-17T13:19:44.430Z,12.95
2023-04-17T13:22:11.102Z,12.60
2023-04-17T13:24:37.877Z,12.52
2023-04-17T13:27:04.682Z,13.27
2023-04-17T13:29:31.402Z,12.65
2023-04-17T13:31:58.169Z,12.25
2023-04-17T13:34:24.800Z,12.32
2023-04-17T13:36:51.394Z,12.90
2023-04-17T13:39:18.137Z,12.52
2023-04-17T13:41:44.601Z,12.43
2023-04-17T13:44:11.470Z,12.93
2023-04-17T13:46:38.056Z,11.50
2023-04-17T13:49:04.691Z,11.80
2023-04-17T13:51:31.888Z,11.95
2023-04-17T13:54:01.351Z,12.75
2023-04-17T13:56:28.627Z,12.30
2023-04-17T13:58:55.729Z,12.27
2023-04-17T14:01:22.519Z,12.93
2023-04-17T14:03:49.722Z,12.07
2023-04-17T14:06:19.337Z,11.68
2023-04-17T14:08:46.230Z,12.98
2023-04-17T14:11:13.260Z,13.10
2023-04-17T14:13:39.969Z,11.63
2023-04-17T14:16:06.826Z,12.73
2023-04-17T14:18:33.430Z,12.35
2023-04-17T14:21:00.010Z,13.32
2023-04-17T14:23:27.362Z,11.95
2023-04-17T14:25:54.002Z,11.55
2023-04-17T14:28:21.298Z,11.98
2023-04-17T14:30:48.371Z,11.88
2023-04-17T14:33:15.027Z,11.23
2023-04-17T14:35:41.714Z,11.13
2023-04-17T14:38:08.387Z,11.40
2023-04-17T14:40:34.983Z,11.57
2023-04-17T14:43:01.521Z,10.82
2023-04-17T14:45:29.769Z,10.70
2023-04-17T14:47:56.909Z,11.07
2023-04-17T14:50:23.640Z,11.60
2023-04-17T14:52:50.409Z,11.68
2023-04-17T14:55:16.927Z,11.90
2023-04-17T14:57:46.365Z,10.93
2023-04-17T15:00:13.796Z,10.40
2023-04-17T15:02:40.753Z,11.85
2023-04-17T15:05:08.203Z,12.05
2023-04-17T15:07:35.354Z,11.45
2023-04-17T15:13:01.010Z,10.43
2023-04-17T15:15:28.552Z,11.25
2023-04-17T15:17:55.132Z,11.18
2023-04-17T15:20:24.982Z,10.27
2023-04-17T15:23:01.017Z,10.30
2023-04-17T15:25:27.713Z,10.02
2023-04-17T15:27:54.299Z,10.00
2023-04-17T15:30:20.835Z,10.82
2023-04-17T15:32:47.688Z,11.68
2023-04-17T15:35:14.338Z,10.82
2023-04-17T15:37:40.956Z,10.52
2023-04-17T15:40:08.084Z,10.60
2023-04-17T15:42:36.060Z,10.95
2023-04-17T15:45:03.172Z,11.13
2023-04-17T15:47:30.113Z,10.52
2023-04-17T15:49:56.826Z,11.50
2023-04-17T15:52:23.420Z,10.35
2023-04-17T15:54:50.071Z,10.73
2023-04-17T15:57:16.630Z,11.07
2023-04-17T15:59:43.163Z,11.27
2023-04-17T16:02:12.998Z,12.32
2023-04-17T16:04:40.118Z,10.82
2023-04-17T16:07:07.711Z,11.32
2023-04-17T16:09:34.297Z,10.77
2023-04-17T16:12:05.595Z,11.25
2023-04-17T16:14:32.501Z,10.90
2023-04-17T16:16:59.957Z,10.80
2023-04-17T16:19:26.725Z,11.10
2023-04-17T16:21:53.298Z,10.32
2023-04-17T16:24:19.776Z,9.55
2023-04-17T16:26:46.254Z,11.32
2023-04-17T16:29:12.867Z,10.27
2023-04-17T16:31:39.601Z,10.85
2023-04-17T16:34:06.190Z,11.50
2023-04-17T16:36:33.378Z,9.75
2023-04-17T16:38:59.950Z,9.75
2023-04-17T16:41:26.493Z,11.35
2023-04-17T16:43:53.169Z,10.38
2023-04-17T16:46:28.568Z,10.30
2023-04-17T16:49:01.881Z,10.88
2023-04-17T16:51:28.645Z,10.32
2023-04-17T16:53:55.208Z,11.00
2023-04-17T16:56:21.895Z,10.52
2023-04-17T16:58:48.435Z,10.70
2023-04-17T17:01:14.970Z,10.68
2023-04-17T17:06:09.577Z,11.27
2023-04-17T17:08:36.180Z,12.13
2023-04-17T17:11:03.646Z,11.43
2023-04-17T17:13:30.271Z,11.65
2023-04-17T17:15:57.287Z,10.43
2023-04-17T17:18:23.872Z,11.45
2023-04-17T17:20:50.647Z,11.95
2023-04-17T17:23:17.202Z,12.20
2023-04-17T17:25:43.756Z,12.18
2023-04-17T17:28:10.286Z,12.75
2023-04-17T17:30:36.967Z,12.80
2023-04-17T17:33:04.664Z,12.38
2023-04-17T17:35:31.233Z,12.10
2023-04-17T17:37:57.737Z,12.50
2023-04-17T17:40:24.387Z,12.65
2023-04-17T17:42:50.926Z,12.75
2023-04-17T17:45:18.314Z,12.63
2023-04-17T17:47:44.982Z,13.27
2023-04-17T17:50:11.590Z,13.65
2023-04-17T17:52:38.282Z,13.60
2023-04-17T17:55:05.246Z,13.30
2023-04-17T17:57:42.195Z,13.52
2023-04-17T18:00:15.869Z,12.77
2023-04-17T18:02:43.007Z,13.30
2023-04-17T18:05:09.769Z,13.70
2023-04-17T18:07:36.553Z,14.25
2023-04-17T18:10:03.517Z,13.77
2023-04-17T18:12:30.066Z,12.68
2023-04-17T18:14:56.663Z,12.25
2023-04-17T18:17:23.257Z,13.00
2023-04-17T18:19:49.801Z,12.63
2023-04-17T18:22:16.432Z,11.77
2023-04-17T18:24:43.063Z,12.43
2023-04-17T18:27:09.626Z,11.77
2023-04-17T18:29:36.183Z,11.35
2023-04-17T18:32:02.700Z,11.88
2023-04-17T18:34:29.282Z,12.27
2023-04-17T18:36:55.881Z,10.75
2023-04-17T18:39:24.477Z,11.02
2023-04-17T18:41:51.006Z,11.23
2023-04-17T18:44:17.503Z,11.32
2023-04-17T18:46:44.142Z,12.25
2023-04-17T18:49:10.721Z,13.32
2023-04-17T18:51:37.780Z,13.75
2023-04-17T18:54:04.916Z,12.13
2023-04-17T18:56:31.439Z,12.38
2023-04-17T18:58:58.016Z,11.52
2023-04-17T19:01:24.585Z,11.73
2023-04-17T19:03:52.999Z,13.60
2023-04-17T19:06:19.557Z,14.07
2023-04-17T19:08:46.119Z,11.98
2023-04-17T19:11:12.795Z,12.98
2023-04-17T19:13:39.940Z,13.23
2023-04-17T19:16:06.738Z,11.38
2023-04-17T19:18:33.444Z,12.73
2023-04-17T19:21:00.033Z,11.27
2023-04-17T19:23:26.596Z,12.48
2023-04-17T19:25:54.884Z,11.68
2023-04-17T19:28:25.326Z,11.57
2023-04-17T19:30:51.931Z,12.15
2023-04-17T19:33:18.999Z,12.75
2023-04-17T19:35:46.083Z,12.13
2023-04-17T19:38:13.143Z,12.98
2023-04-17T19:40:40.947Z,12.15
2023-04-17T19:43:07.480Z,13.35
2023-04-17T19:45:34.856Z,13.88
2023-04-17T19:48:01.493Z,14.10
2023-04-17T19:50:29.902Z,14.30
2023-04-17T19:52:57.745Z,14.18
2023-04-17T19:55:24.330Z,14.88
2023-04-17T19:57:52.322Z,14.23
2023-04-17T20:00:19.224Z,13.02
2023-04-17T20:02:47.078Z,13.00
2023-04-17T20:05:13.893Z,13.52
2023-04-17T20:07:40.467Z,13.90
2023-04-17T20:10:07.602Z,13.52
2023-04-17T20:12:34.683Z,13.10
2023-04-17T20:15:01.326Z,14.00
2023-04-17T20:17:27.912Z,13.68
2023-04-17T20:19:54.481Z,13.07
2023-04-17T20:22:21.123Z,13.40
2023-04-17T20:24:51.646Z,12.65
2023-04-17T20:27:18.451Z,13.32
2023-04-17T20:29:45.008Z,13.48
2023-04-17T20:32:11.622Z,12.18
2023-04-17T20:34:38.134Z,13.25
2023-04-17T20:37:04.696Z,13.25
2023-04-17T20:39:32.066Z,12.90
2023-04-17T20:41:58.623Z,13.93
2023-04-17T20:44:25.176Z,12.07
2023-04-17T20:46:51.605Z,13.50
2023-04-17T20:49:19.332Z,12.95
2023-04-17T20:51:45.846Z,13.38
2023-04-17T20:54:12.632Z,13.48
2023-04-17T20:56:39.301Z,14.65
2023-04-17T20:59:05.912Z,13.60
2023-04-17T21:01:32.550Z,12.93
2023-04-17T21:03:59.102Z,14.20
2023-04-17T21:06:26.731Z,13.00
2023-04-17T21:08:53.981Z,13.57
2023-04-17T21:11:21.501Z,13.27
2023-04-17T21:13:48.292Z,13.55
2023-04-17T21:16:14.842Z,13.18
2023-04-17T21:18:41.360Z,13.07
2023-04-17T21:21:07.967Z,12.48
2023-04-17T21:23:34.475Z,13.27
2023-04-17T21:26:01.345Z,12.48
2023-04-17T21:28:27.946Z,12.40
2023-04-17T21:30:54.772Z,12.90
2023-04-17T21:33:21.382Z,13.75
2023-04-17T21:35:47.899Z,11.48
2023-04-17T21:38:14.386Z,12.35
2023-04-17T21:40:50.503Z,13.85
2023-04-17T21:43:18.233Z,12.40
2023-04-17T21:45:44.768Z,12.82
2023-04-17T21:48:11.278Z,13.52
2023-04-17T21:50:37.763Z,11.80
2023-04-17T21:53:04.254Z,13.15
2023-04-17T21:55:30.782Z,12.73
2023-04-17T21:57:57.331Z,12.60
2023-04-17T22:00:24.038Z,11.98
2023-04-17T22:02:50.876Z,12.48
2023-04-17T22:05:17.649Z,11.82
2023-04-17T22:07:54.224Z,11.75
2023-04-17T22:10:21.996Z,11.82
2023-04-17T22:12:48.581Z,11.93
2023-04-17T22:15:15.129Z,11.93
2023-04-17T22:17:41.633Z,11.85
2023-04-17T22:20:09.798Z,11.80
2023-04-17T22:22:36.469Z,12.95
2023-04-17T22:25:03.140Z,15.93
2023-04-17T22:27:29.779Z,12.57
2023-04-17T22:29:56.483Z,12.25
2023-04-17T22:32:23.112Z,12.60
2023-04-17T22:34:50.024Z,11.45
2023-04-17T22:37:16.693Z,12.13
2023-04-17T22:39:43.203Z,11.80
2023-04-17T22:42:09.806Z,13.20
2023-04-17T22:44:36.546Z,12.70
2023-04-17T22:47:03.394Z,12.48
2023-04-17T22:49:30.764Z,13.27
2023-04-17T22:51:57.685Z,12.23
2023-04-17T22:54:24.601Z,11.73
2023-04-17T22:56:51.327Z,11.73
2023-04-17T22:59:17.920Z,12.32
2023-04-17T23:01:44.643Z,12.10
2023-04-17T23:04:11.484Z,12.93
2023-04-17T23:06:38.236Z,12.75
2023-04-17T23:09:05.008Z,12.38
2023-04-17T23:11:32.556Z,11.63
2023-04-17T23:13:59.472Z,12.55
2023-04-17T23:16:26.366Z,13.60
2023-04-17T23:18:53.128Z,11.93
2023-04-17T23:21:19.684Z,12.25
2023-04-17T23:23:48.209Z,12.30
2023-04-17T23:26:15.333Z,12.55
2023-04-17T23:28:41.924Z,12.48
2023-04-17T23:31:08.442Z,12.40
2023-04-17T23:33:35.396Z,12.68
2023-04-17T23:36:02.211Z,12.07
2023-04-17T23:38:28.817Z,12.25
2023-04-17T23:40:55.449Z,12.00
2023-04-17T23:43:22.028Z,12.73
2023-04-17T23:45:48.538Z,13.13
2023-04-17T23:48:15.065Z,12.07
2023-04-17T23:50:41.669Z,11.68
2023-04-17T23:53:08.161Z,12.52
2023-04-17T23:55:34.763Z,13.15
2023-04-17T23:58:01.355Z,13.27
